CST,Max TemperatureF,Mean TemperatureF,Min TemperatureF,Max Dew PointF,MeanDew PointF,Min DewpointF,Max Humidity, Mean Humidity, Min Humidity, Max Sea Level PressureIn, Mean Sea Level PressureIn, Min Sea Level PressureIn, Max VisibilityMiles, Mean VisibilityMiles, Min VisibilityMiles, Max Wind SpeedMPH, Mean Wind SpeedMPH, Max Gust SpeedMPH,PrecipitationIn, CloudCover, Events, WindDirDegrees
2013-12-1,37,30,23,28,24,21,100,81,60,30.13,30.03,29.84,10,8,4,12,7,14,0.00,3,Rain,84
2013-12-2,50,38,26,36,31,27,100,79,54,29.84,29.60,29.49,10,8,4,15,9,18,0.00,3,,176
2013-12-3,39,34,30,36,32,28,100,94,81,29.67,29.58,29.51,10,4,0,21,11,26,0.00,6,Fog-Snow,29
2013-12-4,32,21,10,32,20,5,100,94,79,29.90,29.65,29.55,10,4,0,13,13,,0.00,8,Rain-Snow,180
2013-12-5,12,6,0,5,-1,-8,85,75,67,30.34,30.16,29.90,10,10,8,,,,0.00,3,Rain-Snow,-1
2013-12-6,6,0,-7,-4,-9,-15,78,69,61,30.62,30.50,30.35,10,10,10,,,,0.00,0,Snow,-1
2013-12-7,8,-2,-11,1,-9,-17,79,65,48,30.67,30.57,30.41,10,10,3,14,8,,0.00,2,Rain-Snow,122
2013-12-8,14,8,3,10,7,0,92,86,79,30.40,30.11,29.98,10,4,1,17,12,22,0.00,7,Rain-Snow,113
2013-12-9,12,2,-7,5,-7,-15,85,72,61,30.19,30.08,29.88,10,10,5,30,15,38,0.00,1,Snow,260
2013-12-10,19,12,6,16,8,0,93,78,62,30.20,30.04,29.85,10,7,1,29,18,38,0.01,4,Snow,256
2013-12-11,17,3,-11,16,-6,-18,100,72,61,30.55,30.43,30.21,10,10,3,24,14,31,0.00,2,Snow,279
2013-12-12,24,15,6,18,10,0,93,78,67,30.33,30.19,30.02,10,10,10,21,14,28,0.00,1,,223
2013-12-13,21,16,12,19,14,10,100,91,86,30.09,29.99,29.92,10,8,1,23,12,30,0.00,3,,55
2013-12-14,15,10,5,12,8,1,92,83,79,30.16,30.12,30.09,10,9,3,21,14,22,0.00,7,Rain-Snow,329
2013-12-15,10,8,6,7,5,3,85,80,73,30.10,30.02,29.97,10,10,7,14,7,,0.00,7,Snow,69
2013-12-16,26,14,3,25,13,1,100,89,80,30.06,29.98,29.91,10,9,2,24,9,25,0.00,4,Snow,232
2013-12-17,32,23,14,28,20,9,100,79,60,30.16,30.11,30.03,10,10,10,25,14,36,0.00,2,Rain,278
2013-12-18,44,30,17,34,25,10,81,74,65,30.05,29.77,29.67,10,10,10,23,15,29,0.00,0,,225
2013-12-19,33,24,15,28,19,14,93,88,75,29.87,29.82,29.74,10,9,2,26,19,32,0.00,3,Snow,34
2013-12-20,15,14,12,14,13,10,100,92,86,29.91,29.87,29.80,10,6,2,23,13,39,0.00,8,Snow,344
2013-12-21,21,16,10,19,14,9,100,91,85,29.85,29.82,29.77,10,8,2,32,11,45,0.00,6,Snow,29
2013-12-22,15,8,0,16,5,-8,100,81,72,30.30,30.05,29.84,10,10,6,25,19,31,0.00,4,Snow,328
2013-12-23,3,-3,-11,-8,-15,-18,78,60,39,30.48,30.42,30.30,10,10,9,22,15,25,0.00,0,Snow,298
2013-12-24,19,3,-13,18,-2,-22,93,69,54,30.45,30.20,30.05,10,9,1,30,13,38,0.00,6,Snow,187
2013-12-25,33,25,17,28,20,14,100,86,64,30.20,30.14,30.07,10,9,2,30,15,38,0.00,6,Rain,274
2013-12-26,42,32,21,25,22,18,93,76,46,30.17,30.08,30.02,10,10,10,17,10,17,0.00,3,,256
2013-12-27,53,35,17,30,26,16,100,73,38,30.18,30.08,30.00,10,10,10,24,11,30,0.00,0,,247
2013-12-28,57,32,8,30,23,5,93,66,27,30.06,29.84,29.66,10,9,2,33,15,45,0.00,2,Snow,236
2013-12-29,8,0,-7,3,-13,-18,79,56,31,30.30,30.22,30.06,10,9,4,33,22,41,0.00,2,Rain-Snow,330
2013-12-30,14,4,-5,10,-1,-15,86,75,51,30.21,30.11,29.99,10,8,1,18,9,22,0.00,5,Rain-Snow,192
2013-12-31,6,3,0,3,0,-6,85,81,78,30.20,30.16,30.10,10,10,6,22,10,26,0.00,7,,57